Time;durP1;ratioP1;P1;durP2;ratioP2;P2;SDS_P1;SDS_P2;PMS_P1;PMS_P2;Temp;Humidity;BMP_temperature;BMP_pressure;BME280_temperature;BME280_humidity;BME280_pressure;Samples;Min_cycle;Max_cycle;Signal;HPM_P1;HPM_P2
2021/03/24 00:00:51;;;;;;;42.13;27.05;;;8.10;99.90;;;;;;5135301;27;20043;-60
2021/03/24 00:03:37;;;;;;;44.88;29.20;;;8.10;99.90;;;;;;5135343;27;20115;-60
2021/03/24 00:06:23;;;;;;;45.65;28.20;;;8.10;99.90;;;;;;5135197;27;20138;-59
2021/03/24 00:09:13;;;;;;;44.95;30.30;;;8.10;99.90;;;;;;5135174;27;20050;-60
2021/03/24 00:11:59;;;;;;;43.05;28.70;;;8.10;99.90;;;;;;5163833;27;20054;-60
2021/03/24 00:14:44;;;;;;;45.35;29.08;;;8.10;99.90;;;;;;5163556;27;20051;-59
2021/03/24 00:17:30;;;;;;;46.67;29.00;;;8.10;99.90;;;;;;5163500;27;20035;-60
2021/03/24 00:20:19;;;;;;;45.67;29.92;;;8.10;99.90;;;;;;5135088;27;20050;-59
2021/03/24 00:23:05;;;;;;;50.72;29.75;;;8.10;99.90;;;;;;5134784;27;20492;-59
2021/03/24 00:25:51;;;;;;;51.13;29.83;;;8.10;99.90;;;;;;5134625;27;20047;-59
2021/03/24 00:28:37;;;;;;;48.53;31.42;;;8.10;99.90;;;;;;5135317;27;20047;-60
2021/03/24 00:31:23;;;;;;;48.15;30.65;;;8.00;99.90;;;;;;5163627;27;20146;-59
2021/03/24 00:34:08;;;;;;;51.03;31.35;;;8.10;99.90;;;;;;5163276;27;20047;-60
2021/03/24 00:36:54;;;;;;;52.45;31.90;;;8.00;99.90;;;;;;5134724;27;20085;-59
2021/03/24 00:39:40;;;;;;;54.13;32.83;;;8.00;99.90;;;;;;5163505;27;20078;-59
2021/03/24 00:42:27;;;;;;;54.22;32.33;;;7.90;99.90;;;;;;5163682;27;20059;-59
2021/03/24 00:45:14;;;;;;;50.80;32.72;;;7.90;99.90;;;;;;5163690;27;20043;-59
2021/03/24 00:48:00;;;;;;;53.00;32.03;;;7.90;99.90;;;;;;5134843;27;20100;-60
2021/03/24 00:50:46;;;;;;;53.22;32.30;;;7.90;99.90;;;;;;5134491;27;20474;-59
2021/03/24 00:53:33;;;;;;;60.20;33.47;;;7.90;99.90;;;;;;5134611;27;20039;-59
2021/03/24 00:56:19;;;;;;;48.80;31.95;;;7.90;99.90;;;;;;5134202;27;20563;-59
2021/03/24 00:59:04;;;;;;;54.08;34.42;;;7.90;99.90;;;;;;5163711;27;20090;-59
2021/03/24 01:01:50;;;;;;;55.53;32.63;;;7.80;99.90;;;;;;5134298;27;20042;-59
2021/03/24 01:04:35;;;;;;;49.90;32.30;;;7.90;99.90;;;;;;5163280;27;20050;-60
2021/03/24 01:07:21;;;;;;;49.22;33.13;;;7.90;99.90;;;;;;5162787;27;20055;-59
2021/03/24 01:10:12;;;;;;;56.15;33.67;;;7.90;99.90;;;;;;5162994;27;20374;-59
2021/03/24 01:12:57;;;;;;;;;;;7.90;99.90;;;;;;5163467;27;20047;-59
2021/03/24 01:15:44;;;;;;;54.20;32.95;;;7.80;99.90;;;;;;5133776;27;19919;-59
2021/03/24 01:18:29;;;;;;;57.83;32.28;;;7.90;99.90;;;;;;5134174;27;20500;-59
2021/03/24 01:21:15;;;;;;;52.72;31.88;;;7.90;99.90;;;;;;5163157;27;20058;-59
2021/03/24 01:24:01;;;;;;;52.28;33.30;;;7.80;99.90;;;;;;5134007;27;20184;-60
2021/03/24 01:26:46;;;;;;;53.70;33.28;;;7.80;99.90;;;;;;5163034;27;20146;-59
2021/03/24 01:29:32;;;;;;;56.13;32.10;;;7.80;99.90;;;;;;5133923;27;20066;-59
2021/03/24 01:32:18;;;;;;;51.95;32.58;;;7.70;99.90;;;;;;5162487;27;20438;-59
2021/03/24 01:35:08;;;;;;;54.13;34.20;;;7.60;99.90;;;;;;5133351;27;20054;-60
2021/03/24 01:37:54;;;;;;;57.28;32.97;;;7.60;99.90;;;;;;5133886;27;20047;-59
2021/03/24 01:40:55;;;;;;;56.58;34.75;;;7.60;99.90;;;;;;5133725;27;20050;-59
2021/03/24 01:43:41;;;;;;;55.90;33.03;;;7.60;99.90;;;;;;5133823;27;20104;-59
2021/03/24 01:46:37;;;;;;;53.95;33.20;;;7.60;99.90;;;;;;5133275;27;20043;-59
2021/03/24 01:49:36;;;;;;;52.45;32.80;;;7.60;99.90;;;;;;5133382;27;20051;-59
2021/03/24 01:52:22;;;;;;;58.25;33.97;;;7.60;99.90;;;;;;5133235;27;20629;-59
2021/03/24 01:55:09;;;;;;;62.15;34.83;;;7.60;99.90;;;;;;5133178;27;20043;-59
2021/03/24 01:57:56;;;;;;;60.08;34.83;;;7.60;99.90;;;;;;5133647;27;20058;-60
2021/03/24 02:00:49;;;;;;;57.90;36.25;;;7.60;99.90;;;;;;5162379;27;20459;-59
2021/03/24 02:03:35;;;;;;;61.42;35.75;;;7.60;99.90;;;;;;5133188;27;20042;-60
2021/03/24 02:07:04;;;;;;;57.97;34.53;;;7.60;99.90;;;;;;5133202;27;20047;-59
2021/03/24 02:10:01;;;;;;;58.40;35.22;;;7.50;99.90;;;;;;5056862;28;20055;-59
2021/03/24 02:13:01;;;;;;;57.95;34.28;;;7.50;99.90;;;;;;5041964;28;20144;-59
2021/03/24 02:15:57;;;;;;;58.55;35.88;;;7.50;99.90;;;;;;5056519;28;20048;-60
2021/03/24 02:18:44;;;;;;;62.13;35.35;;;7.50;99.90;;;;;;5055572;28;20521;-59
2021/03/24 02:21:36;;;;;;;65.57;35.75;;;7.40;99.90;;;;;;5056557;28;20043;-59
2021/03/24 02:24:38;;;;;;;56.67;34.42;;;7.40;99.90;;;;;;5042678;28;20147;-59
2021/03/24 02:27:28;;;;;;;56.08;34.38;;;7.40;99.90;;;;;;5056544;28;20056;-59
2021/03/24 02:30:26;;;;;;;60.55;36.45;;;7.40;99.90;;;;;;5056480;28;20055;-59
2021/03/24 02:33:22;;;;;;;58.72;35.20;;;7.30;99.90;;;;;;5056385;28;20090;-59
2021/03/24 02:36:13;;;;;;;57.97;34.72;;;7.30;99.90;;;;;;5056293;28;20059;-60
2021/03/24 02:39:04;;;;;;;61.75;35.75;;;7.20;99.90;;;;;;5056492;28;20084;-59
2021/03/24 02:41:51;;;;;;;61.00;36.17;;;7.30;99.90;;;;;;5042555;28;20048;-59
2021/03/24 02:44:39;;;;;;;60.08;34.63;;;7.20;99.90;;;;;;5060851;27;20469;-59
2021/03/24 02:47:25;;;;;;;61.38;37.45;;;7.20;99.90;;;;;;5124246;27;20069;-60
2021/03/24 02:50:12;;;;;;;55.83;35.00;;;7.20;99.90;;;;;;5138579;27;20429;-60
2021/03/24 02:53:00;;;;;;;61.95;36.97;;;7.20;99.90;;;;;;5138568;27;20042;-59
2021/03/24 02:55:46;;;;;;;59.20;35.17;;;7.10;99.90;;;;;;5138409;27;20484;-60
2021/03/24 02:58:31;;;;;;;60.42;36.85;;;7.10;99.90;;;;;;5138615;27;20050;-59
2021/03/24 03:01:26;;;;;;;62.13;36.30;;;7.10;99.90;;;;;;5167498;27;20042;-59
2021/03/24 03:04:18;;;;;;;60.97;38.15;;;7.00;99.90;;;;;;5138515;27;20395;-59
2021/03/24 03:07:15;;;;;;;66.18;35.78;;;7.00;99.90;;;;;;5138412;27;20047;-60
2021/03/24 03:10:19;;;;;;;66.13;37.40;;;7.00;99.90;;;;;;5138605;27;20046;-59
2021/03/24 03:13:22;;;;;;;60.40;36.30;;;6.90;99.90;;;;;;5138480;27;20043;-60
2021/03/24 03:16:23;;;;;;;65.75;37.35;;;6.90;99.90;;;;;;5137782;27;20518;-59
2021/03/24 03:19:26;;;;;;;69.95;37.10;;;6.90;99.90;;;;;;5138505;27;20051;-59
2021/03/24 03:22:23;;;;;;;58.67;36.58;;;6.90;99.90;;;;;;5138146;27;20038;-59
2021/03/24 03:25:31;;;;;;;63.05;38.47;;;6.80;99.90;;;;;;5138249;27;20074;-60
2021/03/24 03:28:17;;;;;;;62.00;38.03;;;6.70;99.90;;;;;;5138349;27;20057;-59
2021/03/24 03:31:10;;;;;;;63.95;37.65;;;6.70;99.90;;;;;;5141931;27;20511;-59
2021/03/24 03:33:57;;;;;;;65.30;37.40;;;6.60;99.90;;;;;;5142343;27;20077;-59
2021/03/24 03:36:46;;;;;;;64.40;38.83;;;6.60;99.90;;;;;;5142519;27;20092;-59
2021/03/24 03:39:32;;;;;;;63.17;38.25;;;6.60;99.90;;;;;;5142431;27;20039;-59
2021/03/24 03:42:20;;;;;;;67.82;38.95;;;6.50;99.90;;;;;;5142361;27;20042;-60
2021/03/24 03:45:08;;;;;;;65.53;38.20;;;6.50;99.90;;;;;;5142106;27;20548;-59
2021/03/24 03:47:54;;;;;;;64.07;36.83;;;6.50;99.90;;;;;;5171170;27;20043;-59
2021/03/24 03:50:41;;;;;;;67.68;38.10;;;6.50;99.90;;;;;;5142102;27;20103;-59
2021/03/24 03:53:42;;;;;;;69.43;39.00;;;6.50;99.90;;;;;;5141969;27;20043;-59
2021/03/24 03:56:33;;;;;;;;;;;6.30;99.90;;;;;;5142445;27;20208;-59
2021/03/24 04:00:01;;;;;;;65.40;38.70;;;6.30;99.90;;;;;;5142379;27;20363;-59
2021/03/24 04:02:54;;;;;;;67.13;37.85;;;6.30;99.90;;;;;;5059081;28;20482;-59
2021/03/24 04:05:50;;;;;;;64.95;39.40;;;6.20;99.90;;;;;;5059244;28;20049;-59
2021/03/24 04:08:35;;;;;;;75.53;39.95;;;6.20;99.90;;;;;;5059346;28;20131;-59
2021/03/24 04:11:23;;;;;;;69.85;40.42;;;6.20;99.90;;;;;;5059053;28;20048;-59
2021/03/24 04:14:16;;;;;;;71.90;39.03;;;6.10;99.90;;;;;;5058586;28;20055;-59
2021/03/24 04:17:02;;;;;;;72.25;39.65;;;6.10;99.90;;;;;;5058973;28;20044;-59
2021/03/24 04:19:51;;;;;;;69.95;40.55;;;6.10;99.90;;;;;;5058922;28;20052;-59
2021/03/24 04:22:38;;;;;;;68.95;40.08;;;6.00;99.90;;;;;;5058536;28;20082;-59
2021/03/24 04:25:38;;;;;;;66.40;38.30;;;5.90;99.90;;;;;;5059013;28;20048;-59
2021/03/24 04:28:30;;;;;;;76.82;40.65;;;5.90;99.90;;;;;;5058886;28;20088;-59
2021/03/24 04:31:19;;;;;;;69.20;38.85;;;5.90;99.90;;;;;;5058808;28;20083;-59
2021/03/24 04:34:04;;;;;;;74.47;40.33;;;5.80;99.90;;;;;;5044496;28;20071;-59
2021/03/24 04:37:14;;;;;;;69.05;40.40;;;5.70;99.90;;;;;;5058618;28;20051;-59
2021/03/24 04:40:06;;;;;;;75.20;40.95;;;5.70;99.90;;;;;;5139452;27;20047;-59
2021/03/24 04:42:54;;;;;;;76.72;40.72;;;5.60;99.90;;;;;;5140381;27;20126;-59
2021/03/24 04:46:11;;;;;;;70.72;41.08;;;5.60;99.90;;;;;;5140919;27;20446;-59
2021/03/24 04:49:05;;;;;;;69.53;41.78;;;5.60;99.90;;;;;;5140708;27;20092;-59
2021/03/24 04:51:53;;;;;;;76.45;42.28;;;5.60;99.90;;;;;;5140762;27;20480;-59
2021/03/24 04:54:44;;;;;;;73.75;39.80;;;5.50;99.90;;;;;;5140683;27;20050;-59
2021/03/24 04:57:30;;;;;;;76.53;43.15;;;5.60;99.90;;;;;;5141100;27;20141;-59
2021/03/24 05:00:18;;;;;;;79.15;43.88;;;5.50;99.90;;;;;;5169718;27;20053;-59
2021/03/24 05:03:09;;;;;;;75.95;43.90;;;5.50;99.90;;;;;;5140797;27;20043;-59
2021/03/24 05:05:57;;;;;;;;;;;5.60;99.90;;;;;;5141344;27;20050;-59
2021/03/24 05:08:43;;;;;;;81.35;43.60;;;5.50;99.90;;;;;;5169305;27;19968;-59
2021/03/24 05:11:34;;;;;;;80.00;42.42;;;5.50;99.90;;;;;;5140532;27;20045;-59
2021/03/24 05:14:30;;;;;;;79.78;41.38;;;5.50;99.90;;;;;;5140097;27;20043;-59
2021/03/24 05:17:21;;;;;;;78.57;44.10;;;5.50;99.90;;;;;;5140566;27;20392;-59
2021/03/24 05:20:31;;;;;;;73.20;42.47;;;5.40;99.90;;;;;;5139985;27;20066;-59
2021/03/24 05:23:20;;;;;;;74.70;43.58;;;5.30;99.90;;;;;;5140287;27;20082;-59
2021/03/24 05:26:14;;;;;;;73.25;42.28;;;5.20;99.90;;;;;;5140427;27;20046;-59
2021/03/24 05:29:05;;;;;;;75.97;42.00;;;5.20;99.90;;;;;;5140278;27;20061;-59
2021/03/24 05:31:55;;;;;;;79.47;43.88;;;5.10;99.90;;;;;;5126447;27;20043;-59
2021/03/24 05:34:42;;;;;;;74.18;41.88;;;5.00;99.90;;;;;;5139863;27;20047;-59
2021/03/24 05:37:31;;;;;;;83.60;44.65;;;5.00;99.90;;;;;;5140059;27;20042;-59
2021/03/24 05:40:44;;;;;;;77.25;43.38;;;4.90;99.90;;;;;;5140053;27;20133;-59
2021/03/24 05:43:59;;;;;;;87.07;43.97;;;4.90;99.90;;;;;;5139829;27;20053;-59
2021/03/24 05:47:23;;;;;;;85.50;45.53;;;4.90;99.90;;;;;;5140353;27;20058;-59
2021/03/24 05:50:28;;;;;;;84.82;44.65;;;4.80;99.90;;;;;;5139369;27;20495;-59
2021/03/24 05:53:50;;;;;;;77.90;44.75;;;4.70;99.90;;;;;;5138685;27;20130;-59
2021/03/24 05:56:59;;;;;;;88.72;45.15;;;4.70;99.90;;;;;;5139806;27;20050;-59
2021/03/24 06:00:04;;;;;;;86.32;45.53;;;4.80;99.90;;;;;;5139306;27;20129;-59
2021/03/24 06:03:05;;;;;;;76.85;43.42;;;4.80;99.90;;;;;;5139355;27;20043;-59
2021/03/24 06:06:43;;;;;;;97.53;47.00;;;4.90;99.90;;;;;;5139531;27;20187;-59
2021/03/24 06:09:45;;;;;;;82.43;44.50;;;4.90;99.90;;;;;;5139422;27;20046;-59
2021/03/24 06:12:36;;;;;;;86.72;43.97;;;4.90;99.90;;;;;;5138940;27;20050;-58
2021/03/24 06:15:49;;;;;;;82.45;42.85;;;5.10;99.90;;;;;;5138933;27;20051;-59
2021/03/24 06:18:58;;;;;;;82.72;43.75;;;5.10;99.90;;;;;;5139327;27;20053;-59
2021/03/24 06:22:05;;;;;;;79.25;43.00;;;5.20;99.90;;;;;;5056396;28;20052;-58
2021/03/24 06:25:29;;;;;;;78.43;43.65;;;5.30;99.90;;;;;;5056640;28;20071;-59
2021/03/24 06:28:38;;;;;;;82.07;45.25;;;5.40;99.90;;;;;;5010770;28;20045;-59
2021/03/24 06:31:49;;;;;;;83.57;46.05;;;5.50;99.90;;;;;;5010516;28;20408;-59
2021/03/24 06:34:44;;;;;;;88.75;46.10;;;5.60;99.90;;;;;;4996941;28;20049;-59
2021/03/24 06:37:49;;;;;;;83.82;46.97;;;5.80;99.90;;;;;;5010618;28;20463;-59
2021/03/24 06:41:11;;;;;;;81.20;44.00;;;5.90;99.90;;;;;;5010618;28;20042;-59
2021/03/24 06:44:22;;;;;;;81.93;46.83;;;6.00;99.90;;;;;;5010625;28;20081;-59
2021/03/24 06:47:24;;;;;;;85.18;47.33;;;6.10;99.90;;;;;;5010477;28;20602;-59
2021/03/24 06:50:37;;;;;;;83.35;45.38;;;6.30;99.90;;;;;;5010391;28;20050;-59
2021/03/24 06:53:50;;;;;;;84.38;47.08;;;6.50;99.90;;;;;;5010267;28;20038;-59
2021/03/24 06:56:35;;;;;;;80.45;45.55;;;6.50;99.90;;;;;;5010425;28;20060;-59
2021/03/24 06:59:30;;;;;;;81.32;46.00;;;6.70;99.90;;;;;;5068936;28;20040;-58
2021/03/24 07:02:22;;;;;;;80.55;47.25;;;6.90;99.90;;;;;;5075839;28;20047;-58
2021/03/24 07:05:55;;;;;;;85.38;49.28;;;7.00;99.90;;;;;;5118073;27;20054;-58
2021/03/24 07:09:18;;;;;;;73.28;46.15;;;7.20;99.90;;;;;;5055928;28;20218;-59
2021/03/24 07:12:30;;;;;;;86.05;47.80;;;7.40;99.90;;;;;;5055726;28;20450;-59
2021/03/24 07:15:45;;;;;;;78.15;46.30;;;7.60;99.90;;;;;;5055263;28;20672;-59
2021/03/24 07:19:05;;;;;;;85.72;47.00;;;8.00;99.90;;;;;;5055677;28;20482;-59
2021/03/24 07:22:12;;;;;;;90.70;47.25;;;8.10;99.90;;;;;;4990282;28;20050;-59
2021/03/24 07:25:15;;;;;;;77.60;47.55;;;8.40;99.90;;;;;;4976849;28;20157;-59
2021/03/24 07:28:45;;;;;;;82.32;48.08;;;8.70;99.90;;;;;;4976941;28;20058;-59
2021/03/24 07:31:59;;;;;;;76.70;46.65;;;8.90;99.90;;;;;;4932228;29;20054;-59
2021/03/24 07:35:07;;;;;;;79.15;45.33;;;9.00;99.90;;;;;;4919009;29;20494;-59
2021/03/24 07:37:56;;;;;;;73.47;45.90;;;9.40;99.90;;;;;;4932384;29;20058;-59
2021/03/24 07:41:00;;;;;;;75.95;45.25;;;9.80;99.90;;;;;;5009873;28;20057;-60
2021/03/24 07:44:18;;;;;;;75.35;43.85;;;9.90;99.90;;;;;;4996225;28;20056;-59
2021/03/24 07:47:41;;;;;;;70.40;43.80;;;10.10;99.90;;;;;;4996282;28;20052;-59
2021/03/24 07:50:45;;;;;;;;;;;10.50;99.90;;;;;;5009921;28;20566;-61
2021/03/24 07:53:57;;;;;;;70.15;42.97;;;10.80;99.90;;;;;;5009616;28;19973;-59
2021/03/24 07:56:59;;;;;;;74.75;42.72;;;10.80;99.90;;;;;;4996229;28;20049;-59
2021/03/24 08:00:06;;;;;;;73.38;42.92;;;10.90;99.90;;;;;;5055265;28;20051;-59
2021/03/24 08:02:59;;;;;;;69.90;42.35;;;10.90;99.90;;;;;;5055209;28;20182;-59
2021/03/24 08:06:02;;;;;;;67.80;41.50;;;11.00;99.90;;;;;;5055382;28;20049;-60
2021/03/24 08:09:34;;;;;;;70.57;42.00;;;11.30;99.70;;;;;;5117484;28;20066;-59
2021/03/24 08:12:35;;;;;;;71.57;42.90;;;11.80;99.20;;;;;;5055218;28;20087;-59
2021/03/24 08:15:54;;;;;;;70.87;42.73;;;11.90;98.50;;;;;;5054737;28;20415;-60
2021/03/24 08:19:06;;;;;;;68.15;41.63;;;12.10;98.40;;;;;;5058956;28;20577;-59
2021/03/24 08:22:15;;;;;;;64.70;41.38;;;12.20;97.80;;;;;;5068313;28;20157;-60
2021/03/24 08:24:47;;;;;;;68.22;42.83;;;12.40;96.80;;;;;;4908643;29;20060;-59
2021/03/24 08:27:25;;;;;;;68.13;42.78;;;12.60;97.50;;;;;;4915745;29;20426;-56
2021/03/24 08:30:21;;;;;;;67.80;41.10;;;12.60;96.90;;;;;;4903116;29;20114;-59
2021/03/24 08:33:22;;;;;;;65.45;40.72;;;12.80;96.80;;;;;;4856130;29;20053;-60
2021/03/24 08:36:14;;;;;;;66.35;42.03;;;12.60;96.80;;;;;;4876365;29;20053;-59
2021/03/24 08:38:59;;;;;;;62.90;41.00;;;12.80;95.80;;;;;;4878491;29;20457;-60
2021/03/24 08:41:55;;;;;;;67.85;41.53;;;13.20;96.00;;;;;;4878658;29;20646;-60
2021/03/24 08:44:30;;;;;;;67.38;40.60;;;13.00;95.70;;;;;;4915942;29;20044;-60
2021/03/24 08:47:08;;;;;;;63.20;40.22;;;13.20;96.20;;;;;;4901138;29;20632;-59
2021/03/24 08:49:37;;;;;;;56.33;34.77;;;13.50;95.40;;;;;;4882888;29;20052;-60
2021/03/24 08:52:29;;;;;;;56.90;38.30;;;13.50;94.80;;;;;;4903897;29;20067;-60
2021/03/24 08:55:08;;;;;;;59.22;40.17;;;13.50;94.50;;;;;;4912299;29;20044;-57
2021/03/24 08:57:52;;;;;;;52.60;35.70;;;13.60;94.40;;;;;;4900122;29;20083;-56
2021/03/24 09:00:18;;;;;;;56.25;35.65;;;13.60;94.80;;;;;;4915664;28;20462;-56
2021/03/24 09:03:01;;;;;;;54.67;37.13;;;13.50;93.90;;;;;;5038226;28;20044;-57
2021/03/24 09:05:51;;;;;;;54.88;36.92;;;13.60;94.40;;;;;;5051886;28;20128;-57
2021/03/24 09:08:31;;;;;;;55.17;35.00;;;13.70;94.60;;;;;;5051845;28;20049;-56
2021/03/24 09:11:30;;;;;;;58.72;38.55;;;13.80;94.20;;;;;;5112130;28;20051;-56
2021/03/24 09:14:13;;;;;;;57.10;37.75;;;13.90;93.90;;;;;;5114140;28;20122;-56
2021/03/24 09:17:03;;;;;;;59.05;37.25;;;14.00;93.60;;;;;;5155439;27;20141;-57
2021/03/24 09:19:43;;;;;;;54.10;34.78;;;14.30;93.50;;;;;;5155742;27;20096;-56
2021/03/24 09:22:38;;;;;;;57.10;37.65;;;14.40;92.50;;;;;;5155654;27;20479;-56
2021/03/24 09:25:16;;;;;;;52.45;37.38;;;14.20;93.00;;;;;;5155618;27;20129;-57
2021/03/24 09:28:06;;;;;;;53.72;36.70;;;14.30;92.80;;;;;;5155119;27;20046;-56
2021/03/24 09:30:53;;;;;;;57.08;36.22;;;14.20;93.70;;;;;;5034679;28;20064;-56
2021/03/24 09:33:57;;;;;;;48.78;34.90;;;14.20;92.30;;;;;;5051164;28;20435;-56
2021/03/24 09:36:50;;;;;;;53.30;35.38;;;14.60;92.90;;;;;;5011854;28;20472;-57
2021/03/24 09:39:28;;;;;;;53.38;35.47;;;14.30;92.50;;;;;;5011495;28;20046;-56
2021/03/24 09:42:17;;;;;;;54.47;35.45;;;14.50;93.50;;;;;;5011309;28;20145;-57
2021/03/24 09:45:05;;;;;;;51.35;35.08;;;14.50;92.60;;;;;;5011403;28;20050;-57
2021/03/24 09:47:49;;;;;;;51.83;35.05;;;14.50;93.40;;;;;;5011121;28;20555;-57
2021/03/24 09:50:32;;;;;;;54.30;34.53;;;14.50;92.50;;;;;;5011379;28;20053;-57
2021/03/24 09:53:20;;;;;;;58.70;35.50;;;14.50;93.20;;;;;;5011275;28;20089;-57
2021/03/24 09:55:55;;;;;;;52.15;35.20;;;14.50;93.00;;;;;;5011167;28;20042;-56
2021/03/24 09:58:27;;;;;;;51.55;34.13;;;14.30;93.70;;;;;;5011147;28;20416;-56
2021/03/24 10:01:02;;;;;;;53.60;35.67;;;14.50;93.20;;;;;;5011300;28;20065;-57
2021/03/24 10:03:40;;;;;;;52.42;34.85;;;14.40;93.00;;;;;;5011128;28;20660;-57
2021/03/24 10:06:26;;;;;;;48.22;33.95;;;14.10;93.60;;;;;;5010906;28;20049;-57
2021/03/24 10:09:19;;;;;;;46.38;31.67;;;14.20;93.90;;;;;;5090834;28;20051;-57
2021/03/24 10:12:02;;;;;;;47.40;31.30;;;14.20;93.80;;;;;;5070314;28;20049;-57
2021/03/24 10:14:44;;;;;;;46.55;30.33;;;14.30;93.50;;;;;;5108447;28;20043;-57
2021/03/24 10:17:21;;;;;;;46.65;30.50;;;14.30;93.10;;;;;;5111154;28;20060;-56
2021/03/24 10:20:02;;;;;;;47.55;31.45;;;14.50;93.20;;;;;;5111316;28;20043;-57
2021/03/24 10:22:45;;;;;;;49.83;31.48;;;14.60;93.20;;;;;;5110777;28;20043;-57
2021/03/24 10:25:24;;;;;;;46.50;31.60;;;14.60;92.50;;;;;;5110852;28;20527;-57
2021/03/24 10:27:53;;;;;;;50.30;31.90;;;14.70;92.80;;;;;;5110902;28;20079;-57
2021/03/24 10:30:37;;;;;;;;;;;14.70;93.40;;;;;;5111433;28;20133;-57
2021/03/24 10:33:32;;;;;;;46.85;33.00;;;14.50;92.50;;;;;;5093811;28;19916;-57
2021/03/24 10:36:24;;;;;;;46.97;30.88;;;14.80;93.10;;;;;;5110722;28;20524;-57
2021/03/24 10:39:09;;;;;;;46.20;31.23;;;14.70;93.60;;;;;;5110089;28;20044;-57
2021/03/24 10:42:01;;;;;;;50.95;31.23;;;14.80;93.40;;;;;;5110530;28;20039;-57
2021/03/24 10:44:52;;;;;;;48.47;31.17;;;14.90;92.80;;;;;;5069838;28;20131;-57
2021/03/24 10:47:41;;;;;;;45.58;30.33;;;14.80;92.90;;;;;;5069962;28;20044;-57
2021/03/24 10:50:38;;;;;;;43.80;30.70;;;14.70;93.20;;;;;;5089905;28;20478;-56
2021/03/24 10:53:22;;;;;;;50.45;32.60;;;14.70;93.00;;;;;;5089983;28;20056;-57
2021/03/24 10:56:21;;;;;;;41.30;27.83;;;14.80;93.20;;;;;;5090209;28;20048;-57
2021/03/24 10:59:14;;;;;;;43.97;30.83;;;15.00;92.40;;;;;;5089640;28;20147;-56
2021/03/24 11:01:50;;;;;;;45.63;29.33;;;14.90;92.70;;;;;;5089785;28;20070;-57
2021/03/24 11:04:33;;;;;;;47.65;30.08;;;14.90;93.00;;;;;;5090076;28;20436;-57
2021/03/24 11:07:04;;;;;;;42.67;28.77;;;15.10;92.50;;;;;;5089874;28;20044;-56
2021/03/24 11:09:48;;;;;;;41.83;28.23;;;15.20;92.10;;;;;;5089862;28;20047;-56
2021/03/24 11:12:17;;;;;;;41.33;26.92;;;14.80;91.90;;;;;;5089723;28;20047;-57
2021/03/24 11:15:20;;;;;;;40.00;24.42;;;14.60;92.30;;;;;;5089704;28;20060;-57
2021/03/24 11:17:55;;;;;;;44.65;27.13;;;14.60;92.80;;;;;;5089799;28;20401;-56
2021/03/24 11:20:50;;;;;;;34.75;26.30;;;14.60;92.00;;;;;;5097105;27;20174;-57
2021/03/24 11:23:34;;;;;;;40.30;26.67;;;14.40;92.60;;;;;;5153308;27;20038;-57
2021/03/24 11:26:34;;;;;;;37.17;26.58;;;14.60;92.90;;;;;;5153576;27;20068;-57
2021/03/24 11:29:03;;;;;;;39.17;25.45;;;14.90;93.60;;;;;;5049302;28;20399;-56
2021/03/24 11:31:53;;;;;;;36.42;25.45;;;15.00;92.00;;;;;;5049331;28;20053;-57
2021/03/24 11:34:31;;;;;;;38.42;25.48;;;15.20;92.40;;;;;;5049530;28;20057;-56
2021/03/24 11:37:30;;;;;;;44.65;26.13;;;15.40;92.50;;;;;;5049301;28;20503;-56
2021/03/24 11:40:06;;;;;;;37.33;25.33;;;15.10;91.40;;;;;;5009745;28;20074;-57
2021/03/24 11:42:35;;;;;;;35.92;23.95;;;15.30;91.90;;;;;;5009539;28;20046;-57
2021/03/24 11:45:10;;;;;;;37.25;23.90;;;15.40;91.20;;;;;;5009446;28;20472;-57
2021/03/24 11:47:51;;;;;;;43.22;24.38;;;15.50;90.50;;;;;;5009723;28;20492;-56
2021/03/24 11:50:34;;;;;;;34.38;23.67;;;15.60;91.70;;;;;;5010252;28;20124;-57
2021/03/24 11:53:11;;;;;;;33.38;23.25;;;15.90;91.20;;;;;;5013515;28;20136;-57
2021/03/24 11:55:47;;;;;;;37.20;23.73;;;15.80;89.60;;;;;;5013357;28;20493;-56
2021/03/24 11:58:37;;;;;;;33.88;24.25;;;16.20;90.40;;;;;;5013387;28;20049;-57
2021/03/24 12:01:38;;;;;;;37.78;24.60;;;16.10;88.30;;;;;;5013355;28;20053;-57
2021/03/24 12:04:28;;;;;;;31.90;23.13;;;16.10;89.40;;;;;;5011828;28;20498;-56
2021/03/24 12:07:01;;;;;;;37.05;22.98;;;16.30;89.40;;;;;;5093278;28;20557;-56
2021/03/24 12:09:30;;;;;;;32.67;22.13;;;16.40;88.50;;;;;;5093183;28;20048;-56
2021/03/24 12:12:10;;;;;;;36.55;23.92;;;16.40;87.60;;;;;;5093150;28;20051;-56
2021/03/24 12:14:38;;;;;;;35.55;23.02;;;16.30;85.70;;;;;;5092822;28;20094;-56
2021/03/24 12:17:28;;;;;;;32.17;21.27;;;16.30;85.40;;;;;;5146687;27;20038;-56
2021/03/24 12:20:09;;;;;;;35.07;21.63;;;15.80;85.60;;;;;;5156859;27;20038;-57
2021/03/24 12:22:34;;;;;;;31.80;21.55;;;15.90;86.60;;;;;;5156806;27;20131;-56
2021/03/24 12:25:19;;;;;;;30.65;20.52;;;16.00;87.80;;;;;;5156812;27;20131;-56
2021/03/24 12:27:52;;;;;;;29.40;20.27;;;16.10;88.20;;;;;;5157077;27;20472;-56
2021/03/24 12:30:47;;;;;;;31.00;20.05;;;16.10;85.10;;;;;;5157128;27;20043;-57
2021/03/24 12:33:22;;;;;;;27.35;18.13;;;16.10;86.20;;;;;;5156601;27;20047;-56
2021/03/24 12:36:19;;;;;;;27.60;18.73;;;16.40;85.90;;;;;;5137970;27;20553;-56
2021/03/24 12:39:02;;;;;;;26.33;18.63;;;16.40;81.70;;;;;;5156590;27;20043;-56
2021/03/24 12:41:40;;;;;;;26.05;17.08;;;16.60;84.60;;;;;;5156501;27;20076;-56
2021/03/24 12:44:17;;;;;;;27.65;17.80;;;16.40;80.10;;;;;;5156433;27;20038;-56
2021/03/24 12:46:52;;;;;;;29.17;20.48;;;16.40;84.60;;;;;;5156165;27;20480;-56
2021/03/24 12:49:37;;;;;;;26.73;17.42;;;16.40;84.70;;;;;;5156575;27;20057;-56
2021/03/24 12:52:27;;;;;;;28.30;17.70;;;16.40;79.90;;;;;;5137086;27;20095;-56
2021/03/24 12:54:52;;;;;;;28.13;18.13;;;16.50;80.70;;;;;;5156009;27;20102;-56
2021/03/24 12:57:25;;;;;;;29.48;17.77;;;16.60;82.30;;;;;;5155972;27;20133;-56
2021/03/24 13:00:26;;;;;;;24.25;16.25;;;16.40;84.00;;;;;;5156191;27;20049;-57
2021/03/24 13:03:01;;;;;;;;;;;16.20;79.90;;;;;;5156044;27;20038;-56
2021/03/24 13:05:59;;;;;;;27.80;18.08;;;16.20;82.60;;;;;;5137274;27;19915;-56
2021/03/24 13:08:43;;;;;;;24.65;16.52;;;16.30;82.40;;;;;;5156095;27;20077;-57
2021/03/24 13:11:21;;;;;;;29.58;17.42;;;16.20;78.60;;;;;;5155843;27;20050;-56
2021/03/24 13:13:56;;;;;;;27.13;17.25;;;16.20;80.30;;;;;;5155823;27;20038;-56
2021/03/24 13:16:31;;;;;;;27.42;18.80;;;16.10;80.30;;;;;;5155669;27;20116;-56
2021/03/24 13:19:36;;;;;;;25.42;17.15;;;15.80;84.00;;;;;;5156049;27;20078;-56
2021/03/24 13:22:11;;;;;;;28.20;19.65;;;15.80;88.20;;;;;;5155543;27;20062;-56
2021/03/24 13:24:42;;;;;;;30.40;18.30;;;15.70;82.90;;;;;;5155516;27;20046;-56
2021/03/24 13:27:18;;;;;;;27.88;19.38;;;15.40;84.10;;;;;;5155632;27;20042;-57
2021/03/24 13:29:54;;;;;;;28.00;19.80;;;15.10;83.40;;;;;;5155468;27;20519;-56
2021/03/24 13:32:34;;;;;;;28.92;19.60;;;15.10;83.50;;;;;;5155335;27;20038;-57
2021/03/24 13:35:30;;;;;;;27.20;18.95;;;15.20;86.20;;;;;;5155479;27;20043;-56
2021/03/24 13:37:56;;;;;;;30.73;19.88;;;15.20;84.00;;;;;;5155363;27;20046;-56
2021/03/24 13:40:33;;;;;;;32.97;21.17;;;15.20;86.50;;;;;;5155294;27;20070;-56
2021/03/24 13:43:30;;;;;;;31.58;21.42;;;15.50;87.50;;;;;;5155186;27;20411;-56
2021/03/24 13:46:11;;;;;;;32.63;21.45;;;15.50;87.70;;;;;;5051141;28;20538;-56
2021/03/24 13:48:42;;;;;;;37.72;22.05;;;15.50;83.90;;;;;;5051119;28;20091;-57
2021/03/24 13:51:15;;;;;;;25.90;19.63;;;15.50;84.80;;;;;;5050994;28;20053;-56
2021/03/24 13:54:01;;;;;;;27.80;20.95;;;15.30;87.20;;;;;;5050982;28;20083;-56
2021/03/24 13:56:28;;;;;;;33.92;22.55;;;15.30;86.10;;;;;;5051027;28;20045;-56
2021/03/24 13:59:18;;;;;;;34.17;22.50;;;15.10;86.30;;;;;;5050732;28;20041;-56
2021/03/24 14:01:53;;;;;;;30.23;22.40;;;15.20;87.80;;;;;;5050679;28;20041;-56
2021/03/24 14:04:52;;;;;;;34.97;22.00;;;15.00;87.60;;;;;;5050441;28;20057;-56
2021/03/24 14:07:30;;;;;;;39.28;23.55;;;15.10;87.70;;;;;;5050639;28;20132;-56
2021/03/24 14:10:02;;;;;;;34.25;23.02;;;14.90;87.30;;;;;;5050560;28;20044;-56
2021/03/24 14:12:48;;;;;;;34.35;23.30;;;14.60;88.60;;;;;;5050466;28;20175;-56
2021/03/24 14:15:29;;;;;;;34.10;22.73;;;14.80;90.50;;;;;;5049404;28;20060;-56
2021/03/24 14:18:05;;;;;;;33.75;22.30;;;14.70;89.40;;;;;;5050604;28;20083;-56
2021/03/24 14:20:51;;;;;;;38.28;25.27;;;14.80;88.50;;;;;;5050480;28;20064;-56
2021/03/24 14:23:34;;;;;;;34.47;24.17;;;14.40;89.20;;;;;;5123495;27;20035;-56
2021/03/24 14:26:13;;;;;;;36.38;22.70;;;14.50;89.20;;;;;;5154377;27;20044;-57
2021/03/24 14:28:59;;;;;;;36.67;22.60;;;14.30;89.40;;;;;;5154273;27;20039;-57
2021/03/24 14:31:41;;;;;;;36.10;22.52;;;14.30;90.70;;;;;;5154500;27;20095;-56